Terminal Aerodrome Forecast
Issued by NWS

Home | Current Version | Previous Version | Text Only | Print | Product List | Glossary On
Versions: 1 2 3 4 5 6 7 8 9 10 11 12 13 14 15 16 17 18 19 20 21 22 23 24 25 26 27 28 29 30
476
FTUS45 KGJT 240520
TAFEGE
TAF
KEGE 240520Z 2406/2506 11003KT P6SM SKC
     FM241700 23008KT P6SM SCT250
     FM242000 24015G25KT P6SM SCT100 BKN250
     FM250200 22006KT P6SM SCT250
      AMD LTD TO CLD VIS AND WIND TIL 241300=

USA.gov is the U.S. government's official web portal to all federal, state and local government web resources and services.